createdAt,value
2024-02-29T00:00:01.580Z,102244.71
2024-02-29T00:02:29.084Z,102246.89
2024-02-29T00:04:56.532Z,102249.08
2024-02-29T00:07:23.994Z,102246.33
2024-02-29T00:09:51.520Z,102248.70
2024-02-29T00:12:19.150Z,102252.19
2024-02-29T00:14:46.732Z,102253.55
2024-02-29T00:17:14.248Z,102249.19
2024-02-29T00:19:41.877Z,102247.30
2024-02-29T00:22:09.494Z,102239.28
2024-02-29T00:24:37.076Z,102236.39
2024-02-29T00:27:05.123Z,102240.16
2024-02-29T00:29:32.731Z,102241.61
2024-02-29T00:32:03.229Z,102240.23
2024-02-29T00:34:30.799Z,102238.63
2024-02-29T00:36:58.853Z,102238.52
2024-02-29T00:39:26.506Z,102237.90
2024-02-29T00:41:54.029Z,102235.92
2024-02-29T00:44:21.499Z,102235.51
2024-02-29T00:46:48.997Z,102236.03
2024-02-29T00:49:16.998Z,102232.51
2024-02-29T00:51:44.623Z,102228.77
2024-02-29T00:54:12.116Z,102233.27
2024-02-29T00:56:39.553Z,102233.63
2024-02-29T00:59:07.023Z,102228.70
2024-02-29T01:01:34.674Z,102228.39
2024-02-29T01:04:02.507Z,102229.77
2024-02-29T01:06:30.086Z,102231.20
2024-02-29T01:08:57.672Z,102232.80
2024-02-29T01:11:25.232Z,102230.29
2024-02-29T01:13:52.859Z,102230.00
2024-02-29T01:16:20.498Z,102228.50
2024-02-29T01:18:48.181Z,102228.98
2024-02-29T01:21:15.922Z,102232.33
2024-02-29T01:23:43.481Z,102232.39
2024-02-29T01:26:12.092Z,102234.33
2024-02-29T01:28:39.623Z,102235.59
2024-02-29T01:31:07.277Z,102235.79
2024-02-29T01:33:34.910Z,102237.33
2024-02-29T01:36:02.481Z,102238.00
2024-02-29T01:38:32.021Z,102241.00
2024-02-29T01:40:59.586Z,102236.69
2024-02-29T01:43:30.663Z,102228.79
2024-02-29T01:46:11.185Z,102225.40
2024-02-29T01:48:39.787Z,102222.33
2024-02-29T01:51:07.700Z,102223.77
2024-02-29T01:53:35.467Z,102226.88
2024-02-29T01:56:03.032Z,102225.84
2024-02-29T01:58:30.634Z,102225.83
2024-02-29T02:00:58.206Z,102223.56
2024-02-29T02:03:25.680Z,102224.31
2024-02-29T02:05:53.231Z,102226.14
2024-02-29T02:08:20.725Z,102225.50
2024-02-29T02:10:48.283Z,102234.94
2024-02-29T02:13:15.977Z,102235.69
2024-02-29T02:15:43.768Z,102233.43
2024-02-29T02:18:11.256Z,102237.01
2024-02-29T02:20:38.986Z,102239.41
2024-02-29T02:23:06.728Z,102236.67
2024-02-29T02:25:34.281Z,102238.58
2024-02-29T02:28:02.277Z,102245.40
2024-02-29T02:30:29.902Z,102248.59
2024-02-29T02:32:57.486Z,102252.75
2024-02-29T02:35:25.042Z,102248.55
2024-02-29T02:37:52.505Z,102251.45
2024-02-29T02:40:20.487Z,102250.94
2024-02-29T02:42:48.131Z,102246.73
2024-02-29T02:45:15.729Z,102245.67
2024-02-29T02:47:43.273Z,102245.02
2024-02-29T02:50:11.872Z,102244.34
2024-02-29T02:52:39.315Z,102238.33
2024-02-29T02:55:07.389Z,102240.88
2024-02-29T02:57:35.043Z,102234.55
2024-02-29T03:00:05.361Z,102228.54
2024-02-29T03:02:32.853Z,102225.97
2024-02-29T03:05:00.463Z,102224.79
2024-02-29T03:07:27.969Z,102227.30
2024-02-29T03:09:55.557Z,102223.48
2024-02-29T03:12:23.088Z,102220.08
2024-02-29T03:14:50.647Z,102217.73
2024-02-29T03:17:18.271Z,102217.64
2024-02-29T03:19:45.821Z,102213.27
2024-02-29T03:22:13.516Z,102216.34
2024-02-29T03:24:44.789Z,102214.49
2024-02-29T03:27:12.908Z,102213.68
2024-02-29T03:29:40.545Z,102211.15
2024-02-29T03:32:08.178Z,102207.86
2024-02-29T03:34:35.708Z,102209.52
2024-02-29T03:37:03.258Z,102211.70
2024-02-29T03:39:30.904Z,102216.58
2024-02-29T03:41:58.487Z,102221.55
2024-02-29T03:44:26.377Z,102227.55
2024-02-29T03:46:53.926Z,102233.68
2024-02-29T03:49:21.539Z,102234.59
2024-02-29T03:51:49.090Z,102232.44
2024-02-29T03:54:17.143Z,102232.65
2024-02-29T03:56:44.888Z,102236.81
2024-02-29T03:59:12.360Z,102239.68
2024-02-29T04:01:40.020Z,102247.96
2024-02-29T04:04:07.650Z,102250.48
2024-02-29T04:06:35.277Z,102250.08
2024-02-29T04:09:03.730Z,102245.70
2024-02-29T04:11:31.276Z,102244.16
2024-02-29T04:13:58.730Z,102246.67
2024-02-29T04:16:26.388Z,102252.02
2024-02-29T04:18:53.962Z,102251.84
2024-02-29T04:21:21.410Z,102256.34
2024-02-29T04:23:48.985Z,102255.90
2024-02-29T04:26:17.277Z,102254.65
2024-02-29T04:28:44.789Z,102256.73
2024-02-29T04:31:12.432Z,102261.34
2024-02-29T04:33:40.441Z,102261.23
2024-02-29T04:36:08.584Z,102268.05
2024-02-29T04:38:36.050Z,102272.75
2024-02-29T04:41:03.787Z,102275.23
2024-02-29T04:43:31.278Z,102281.58
2024-02-29T04:45:59.168Z,102278.21
2024-02-29T04:48:27.342Z,102279.92
2024-02-29T04:50:56.148Z,102277.64
2024-02-29T04:53:23.762Z,102273.61
2024-02-29T04:55:51.312Z,102271.86
2024-02-29T04:58:19.470Z,102271.02
2024-02-29T05:00:47.169Z,102269.80
2024-02-29T05:03:14.882Z,102271.28
2024-02-29T05:05:42.935Z,102272.11
2024-02-29T05:08:10.477Z,102269.82
2024-02-29T05:10:38.034Z,102272.81
2024-02-29T05:13:05.629Z,102275.77
2024-02-29T05:15:33.211Z,102282.44
2024-02-29T05:18:01.973Z,102278.44
2024-02-29T05:20:29.978Z,102279.21
2024-02-29T05:22:57.468Z,102284.46
2024-02-29T05:25:26.515Z,102285.48
2024-02-29T05:27:54.122Z,102290.02
2024-02-29T05:30:21.589Z,102289.65
2024-02-29T05:32:51.966Z,102291.48
2024-02-29T05:35:19.477Z,102292.17
2024-02-29T05:37:47.090Z,102290.54
2024-02-29T05:40:14.756Z,102285.52
2024-02-29T05:42:42.369Z,102289.56
2024-02-29T05:45:12.233Z,102285.21
2024-02-29T05:47:39.853Z,102289.41
2024-02-29T05:50:08.804Z,102290.27
2024-02-29T05:52:41.699Z,102291.33
2024-02-29T05:55:10.450Z,102301.83
2024-02-29T05:57:38.158Z,102302.79
2024-02-29T06:00:06.872Z,102304.80
2024-02-29T06:02:44.679Z,102304.70
2024-02-29T06:05:12.344Z,102304.49
2024-02-29T06:07:39.815Z,102308.85
2024-02-29T06:10:11.697Z,102311.32
2024-02-29T06:12:39.359Z,102309.45
2024-02-29T06:15:10.964Z,102307.80
2024-02-29T06:17:40.545Z,102312.48
2024-02-29T06:20:13.445Z,102313.73
2024-02-29T06:22:41.642Z,102312.44
2024-02-29T06:25:10.990Z,102315.20
2024-02-29T06:27:40.009Z,102312.29
2024-02-29T06:30:09.709Z,102311.05
2024-02-29T06:32:37.513Z,102314.08
2024-02-29T06:35:05.521Z,102316.67
2024-02-29T06:37:33.156Z,102315.18
2024-02-29T06:40:00.828Z,102316.68
2024-02-29T06:42:28.803Z,102318.95
2024-02-29T06:44:56.272Z,102320.80
2024-02-29T06:47:23.707Z,102324.53
2024-02-29T06:49:51.235Z,102322.16
2024-02-29T06:52:18.779Z,102321.95
2024-02-29T06:54:46.600Z,102318.54
2024-02-29T06:57:17.457Z,102313.20
2024-02-29T06:59:44.991Z,102317.95
2024-02-29T07:02:12.548Z,102317.23
2024-02-29T07:04:40.270Z,102318.70
2024-02-29T07:07:10.583Z,102319.13
2024-02-29T07:09:46.071Z,102318.39
2024-02-29T07:12:13.806Z,102317.63
2024-02-29T07:14:41.271Z,102315.58
2024-02-29T07:17:09.166Z,102315.95
2024-02-29T07:19:36.671Z,102320.16
2024-02-29T07:22:04.398Z,102317.31
2024-02-29T07:24:34.967Z,102317.27
2024-02-29T07:27:02.988Z,102320.67
2024-02-29T07:29:30.591Z,102319.08
2024-02-29T07:31:59.313Z,102319.45
2024-02-29T07:34:26.990Z,102322.73
2024-02-29T07:36:54.768Z,102317.94
2024-02-29T07:39:22.468Z,102320.90
2024-02-29T07:41:53.653Z,102319.00
2024-02-29T07:44:21.972Z,102322.55
2024-02-29T07:46:49.606Z,102323.02
2024-02-29T07:49:20.361Z,102319.10
2024-02-29T07:51:48.188Z,102311.71
2024-02-29T07:54:15.965Z,102312.52
2024-02-29T07:56:43.939Z,102304.23
2024-02-29T07:59:14.499Z,102306.92
2024-02-29T08:01:42.476Z,102311.84
2024-02-29T08:04:11.143Z,102312.42
2024-02-29T08:06:41.886Z,102310.10
2024-02-29T08:09:15.043Z,102307.52
2024-02-29T08:11:42.951Z,102309.13
2024-02-29T08:14:10.584Z,102313.11
2024-02-29T08:16:38.404Z,102317.50
2024-02-29T08:19:08.067Z,102318.30
2024-02-29T08:21:40.488Z,102318.40
2024-02-29T08:24:08.868Z,102319.38
2024-02-29T08:26:36.564Z,102319.90
2024-02-29T08:29:07.126Z,102320.21
2024-02-29T08:31:35.039Z,102318.86
2024-02-29T08:34:06.363Z,102315.61
2024-02-29T08:36:36.333Z,102314.60
2024-02-29T08:39:04.166Z,102310.76
2024-02-29T08:41:31.792Z,102312.41
2024-02-29T08:43:59.425Z,102311.25
2024-02-29T08:46:27.372Z,102313.04
2024-02-29T08:48:55.088Z,102315.55
2024-02-29T08:51:22.783Z,102312.20
2024-02-29T08:53:53.387Z,102313.63
2024-02-29T08:56:21.564Z,102315.48
2024-02-29T08:58:49.276Z,102317.48
2024-02-29T09:01:18.036Z,102323.71
2024-02-29T09:03:45.884Z,102322.10
2024-02-29T09:06:14.798Z,102324.22
2024-02-29T09:08:42.918Z,102322.06
2024-02-29T09:11:10.521Z,102317.23
2024-02-29T09:13:38.546Z,102318.48
2024-02-29T09:16:09.376Z,102318.70
2024-02-29T09:18:37.071Z,102321.48
2024-02-29T09:21:07.758Z,102325.11
2024-02-29T09:23:37.076Z,102325.35
2024-02-29T09:26:04.831Z,102325.55
2024-02-29T09:28:35.674Z,102324.09
2024-02-29T09:31:03.578Z,102319.06
2024-02-29T09:33:31.954Z,102320.61
2024-02-29T09:35:59.689Z,102319.49
2024-02-29T09:38:29.305Z,102316.29
2024-02-29T09:41:07.277Z,102316.29
2024-02-29T09:43:46.445Z,102317.59
2024-02-29T09:46:14.341Z,102310.84
2024-02-29T09:48:45.150Z,102306.61
2024-02-29T09:51:16.544Z,102302.61
2024-02-29T09:53:44.372Z,102299.90
2024-02-29T09:56:12.018Z,102296.05
2024-02-29T09:58:40.289Z,102295.29
2024-02-29T10:01:10.176Z,102291.16
2024-02-29T10:03:38.068Z,102287.41
2024-02-29T10:06:06.691Z,102283.20
2024-02-29T10:08:37.272Z,102282.26
2024-02-29T10:11:12.357Z,102282.26
2024-02-29T10:13:49.226Z,102278.16
2024-02-29T10:16:17.203Z,102278.27
2024-02-29T10:18:48.434Z,102272.61
2024-02-29T10:21:19.986Z,102274.09
2024-02-29T10:23:47.741Z,102278.48
2024-02-29T10:26:15.317Z,102273.78
2024-02-29T10:28:43.016Z,102271.49
2024-02-29T10:31:16.864Z,102265.81
2024-02-29T10:33:48.498Z,102262.29
2024-02-29T10:36:16.724Z,102258.51
2024-02-29T10:39:00.777Z,102251.27
2024-02-29T10:41:33.739Z,102248.45
2024-02-29T10:44:11.240Z,102248.59
2024-02-29T10:46:39.133Z,102252.17
2024-02-29T10:49:13.510Z,102253.27
2024-02-29T10:51:48.998Z,102250.41
2024-02-29T10:54:27.547Z,102248.70
2024-02-29T10:56:55.944Z,102246.67
2024-02-29T10:59:26.634Z,102246.64
2024-02-29T11:02:00.990Z,102249.73
2024-02-29T11:04:32.119Z,102246.50
2024-02-29T11:06:59.978Z,102243.20
2024-02-29T11:09:33.006Z,102242.77
2024-02-29T11:12:13.006Z,102239.00
2024-02-29T11:14:44.291Z,102237.09
2024-02-29T11:17:14.656Z,102232.23
2024-02-29T11:19:52.192Z,102227.09
2024-02-29T11:22:35.718Z,102223.53
2024-02-29T11:25:13.176Z,102223.84
2024-02-29T11:27:53.611Z,102221.55
2024-02-29T11:30:26.696Z,102219.55
2024-02-29T11:32:54.733Z,102218.36
2024-02-29T11:35:23.075Z,102217.23
2024-02-29T11:37:51.252Z,102216.42
2024-02-29T11:40:19.752Z,102214.23
2024-02-29T11:42:47.876Z,102207.67
2024-02-29T11:45:28.670Z,102205.75
2024-02-29T11:47:56.309Z,102204.36
2024-02-29T11:50:25.861Z,102206.08
2024-02-29T11:52:59.330Z,102209.36
2024-02-29T11:55:34.912Z,102210.45
2024-02-29T11:58:03.701Z,102205.13
2024-02-29T12:00:36.482Z,102202.75
2024-02-29T12:03:06.234Z,102204.15
2024-02-29T12:05:36.312Z,102202.52
2024-02-29T12:08:18.038Z,102206.42
2024-02-29T12:10:49.547Z,102205.31
2024-02-29T12:13:19.710Z,102203.95
2024-02-29T12:15:55.546Z,102206.79
2024-02-29T12:18:24.088Z,102202.31
2024-02-29T12:20:54.362Z,102193.76
2024-02-29T12:23:21.989Z,102195.38
2024-02-29T12:25:49.662Z,102192.20
2024-02-29T12:28:20.250Z,102192.02
2024-02-29T12:30:50.202Z,102189.88
2024-02-29T12:33:18.655Z,102187.58
2024-02-29T12:35:52.398Z,102183.41
2024-02-29T12:38:23.565Z,102180.73
2024-02-29T12:40:56.365Z,102183.73
2024-02-29T12:43:28.118Z,102188.85
2024-02-29T12:45:56.903Z,102186.08
2024-02-29T12:48:27.914Z,102192.80
2024-02-29T12:50:55.846Z,102195.96
2024-02-29T12:53:28.774Z,102189.17
2024-02-29T12:55:59.290Z,102192.62
2024-02-29T12:58:27.026Z,102192.71
2024-02-29T13:00:55.179Z,102188.45
2024-02-29T13:03:22.976Z,102186.52
2024-02-29T13:05:54.700Z,102189.71
2024-02-29T13:08:28.614Z,102188.40
2024-02-29T13:10:56.494Z,102180.80
2024-02-29T13:13:24.243Z,102180.52
2024-02-29T13:15:56.354Z,102180.87
2024-02-29T13:18:27.195Z,102180.40
2024-02-29T13:21:02.394Z,102182.77
2024-02-29T13:23:34.423Z,102184.11
2024-02-29T13:26:05.542Z,102184.08
2024-02-29T13:28:38.965Z,102181.14
2024-02-29T13:31:06.796Z,102175.21
2024-02-29T13:33:36.119Z,102167.36
2024-02-29T13:36:04.167Z,102167.40
2024-02-29T13:38:32.551Z,102169.62
2024-02-29T13:41:00.300Z,102172.58
2024-02-29T13:43:28.118Z,102168.48
2024-02-29T13:45:59.279Z,102165.11
2024-02-29T13:48:27.068Z,102161.95
2024-02-29T13:50:54.689Z,102167.13
2024-02-29T13:53:22.356Z,102167.77
2024-02-29T13:55:50.110Z,102157.14
2024-02-29T13:58:17.840Z,102153.08
2024-02-29T14:00:45.717Z,102147.13
2024-02-29T14:03:19.008Z,102143.68
2024-02-29T14:05:50.944Z,102145.73
2024-02-29T14:08:19.104Z,102152.54
2024-02-29T14:10:46.807Z,102151.55
2024-02-29T14:13:17.359Z,102149.09
2024-02-29T14:15:45.620Z,102146.70
2024-02-29T14:18:14.987Z,102144.09
2024-02-29T14:20:48.465Z,102141.94
2024-02-29T14:23:17.086Z,102139.85
2024-02-29T14:25:44.687Z,102141.03
2024-02-29T14:28:13.297Z,102139.02
2024-02-29T14:30:41.342Z,102139.23
2024-02-29T14:33:09.104Z,102147.35
2024-02-29T14:35:36.976Z,102146.89
2024-02-29T14:38:05.344Z,102140.55
2024-02-29T14:40:32.984Z,102138.52
2024-02-29T14:43:00.801Z,102147.29
2024-02-29T14:45:28.559Z,102147.21
2024-02-29T14:47:56.475Z,102143.48
2024-02-29T14:50:25.763Z,102152.73
2024-02-29T14:52:53.584Z,102159.66
2024-02-29T14:55:34.799Z,102155.88
2024-02-29T14:58:02.684Z,102158.81
2024-02-29T15:00:30.538Z,102161.04
2024-02-29T15:02:58.273Z,102160.54
2024-02-29T15:05:28.759Z,102166.52
2024-02-29T15:07:57.380Z,102167.01
2024-02-29T15:10:26.007Z,102163.55
2024-02-29T15:12:58.624Z,102156.54
2024-02-29T15:15:27.886Z,102151.05
2024-02-29T15:17:55.755Z,102155.48
2024-02-29T15:20:23.629Z,102164.48
2024-02-29T15:22:51.260Z,102163.05
2024-02-29T15:25:19.041Z,102160.77
2024-02-29T15:27:54.755Z,102150.97
2024-02-29T15:30:22.765Z,102153.94
2024-02-29T15:32:52.326Z,102157.98
2024-02-29T15:35:19.944Z,102154.80
2024-02-29T15:37:47.749Z,102150.16
2024-02-29T15:40:18.567Z,102153.29
2024-02-29T15:42:49.261Z,102159.05
2024-02-29T15:45:17.151Z,102160.29
2024-02-29T15:47:44.933Z,102162.55
2024-02-29T15:50:12.598Z,102152.28
2024-02-29T15:52:42.850Z,102146.83
2024-02-29T15:55:11.384Z,102153.16
2024-02-29T15:57:39.078Z,102146.75
2024-02-29T16:00:07.541Z,102148.33
2024-02-29T16:02:40.345Z,102151.45
2024-02-29T16:05:08.455Z,102147.25
2024-02-29T16:07:36.289Z,102153.66
2024-02-29T16:10:04.141Z,102170.10
2024-02-29T16:12:31.900Z,102168.98
2024-02-29T16:14:59.629Z,102160.46
2024-02-29T16:17:27.349Z,102166.08
2024-02-29T16:19:55.034Z,102169.00
2024-02-29T16:22:22.781Z,102166.27
2024-02-29T16:24:50.623Z,102173.10
2024-02-29T16:27:18.228Z,102180.98
2024-02-29T16:29:45.873Z,102184.49
2024-02-29T16:32:13.625Z,102179.58
2024-02-29T16:34:41.317Z,102181.30
2024-02-29T16:37:08.912Z,102179.72
2024-02-29T16:39:36.528Z,102180.25
2024-02-29T16:42:06.266Z,102172.23
2024-02-29T16:44:33.979Z,102174.13
2024-02-29T16:47:02.706Z,102186.84
2024-02-29T16:49:30.488Z,102187.73
2024-02-29T16:51:58.895Z,102170.87
2024-02-29T16:54:26.518Z,102175.25
2024-02-29T16:56:54.194Z,102199.69
2024-02-29T16:59:21.796Z,102197.99
2024-02-29T17:01:49.455Z,102191.55
2024-02-29T17:04:17.402Z,102189.70
2024-02-29T17:06:45.017Z,102186.32
2024-02-29T17:09:12.560Z,102185.21
2024-02-29T17:11:40.740Z,102184.67
2024-02-29T17:14:08.401Z,102177.38
2024-02-29T17:16:36.257Z,102185.21
2024-02-29T17:19:04.432Z,102182.98
2024-02-29T17:21:32.291Z,102177.08
2024-02-29T17:24:00.007Z,102179.55
2024-02-29T17:26:28.056Z,102168.14
2024-02-29T17:28:55.674Z,102157.64
2024-02-29T17:31:23.501Z,102161.30
2024-02-29T17:33:52.500Z,102167.23
2024-02-29T17:36:20.117Z,102159.68
2024-02-29T17:38:47.651Z,102154.52
2024-02-29T17:41:15.402Z,102159.27
2024-02-29T17:43:43.046Z,102151.30
2024-02-29T17:46:10.970Z,102151.16
2024-02-29T17:48:38.853Z,102161.82
2024-02-29T17:51:06.491Z,102160.13
2024-02-29T17:53:34.109Z,102140.20
2024-02-29T17:56:02.042Z,102140.23
2024-02-29T17:58:31.774Z,102144.52
2024-02-29T18:01:01.437Z,102136.58
2024-02-29T18:03:29.287Z,102142.09
2024-02-29T18:05:56.864Z,102144.41
2024-02-29T18:08:24.479Z,102131.92
2024-02-29T18:10:52.110Z,102132.58
2024-02-29T18:13:20.149Z,102145.61
2024-02-29T18:15:48.171Z,102157.26
2024-02-29T18:18:17.959Z,102156.39
2024-02-29T18:20:45.527Z,102157.15
2024-02-29T18:23:13.576Z,102176.13
2024-02-29T18:25:41.672Z,102171.20
2024-02-29T18:28:09.291Z,102154.67
2024-02-29T18:30:36.977Z,102157.80
2024-02-29T18:33:04.931Z,102152.65
2024-02-29T18:35:32.926Z,102143.34
2024-02-29T18:38:00.723Z,102147.61
2024-02-29T18:40:28.588Z,102142.27
2024-02-29T18:42:56.213Z,102142.94
2024-02-29T18:45:25.047Z,102155.64
2024-02-29T18:47:52.713Z,102152.88
2024-02-29T18:50:21.860Z,102162.70
2024-02-29T18:52:49.856Z,102168.52
2024-02-29T18:55:18.123Z,102149.94
2024-02-29T18:57:46.529Z,102142.91
2024-02-29T19:00:17.422Z,102161.36
2024-02-29T19:02:45.078Z,102152.41
2024-02-29T19:05:12.630Z,102141.01
2024-02-29T19:07:40.486Z,102140.44
2024-02-29T19:10:11.300Z,102141.66
2024-02-29T19:12:39.303Z,102143.69
2024-02-29T19:15:08.621Z,102139.33
2024-02-29T19:17:38.896Z,102145.23
2024-02-29T19:20:08.189Z,102147.40
2024-02-29T19:22:36.700Z,102154.38
2024-02-29T19:25:07.145Z,102148.02
2024-02-29T19:27:34.910Z,102139.83
2024-02-29T19:30:03.149Z,102146.14
2024-02-29T19:32:30.742Z,102146.80
2024-02-29T19:35:00.406Z,102144.91
2024-02-29T19:37:28.595Z,102140.50
2024-02-29T19:39:56.512Z,102143.41
2024-02-29T19:42:25.461Z,102142.73
2024-02-29T19:44:54.393Z,102144.54
2024-02-29T19:47:24.505Z,102130.45
2024-02-29T19:49:52.246Z,102134.23
2024-02-29T19:52:19.880Z,102142.13
2024-02-29T19:54:48.362Z,102132.11
2024-02-29T19:57:16.286Z,102131.08
2024-02-29T19:59:43.881Z,102137.30
2024-02-29T20:02:11.597Z,102139.55
2024-02-29T20:04:39.359Z,102139.93
2024-02-29T20:07:07.187Z,102134.13
2024-02-29T20:09:34.810Z,102120.50
2024-02-29T20:12:03.240Z,102133.51
2024-02-29T20:14:31.020Z,102133.25
2024-02-29T20:16:58.571Z,102124.27
2024-02-29T20:19:26.171Z,102127.84
2024-02-29T20:21:53.811Z,102126.17
2024-02-29T20:24:21.410Z,102124.17
2024-02-29T20:26:48.987Z,102125.02
2024-02-29T20:29:16.601Z,102121.17
2024-02-29T20:31:44.288Z,102119.70
2024-02-29T20:34:11.886Z,102129.63
2024-02-29T20:36:41.542Z,102126.77
2024-02-29T20:39:09.138Z,102117.63
2024-02-29T20:41:36.722Z,102118.27
2024-02-29T20:44:04.355Z,102110.84
2024-02-29T20:46:33.550Z,102107.53
2024-02-29T20:49:01.671Z,102116.67
2024-02-29T20:51:29.259Z,102115.91
2024-02-29T20:53:56.835Z,102113.27
2024-02-29T20:56:24.539Z,102114.09
2024-02-29T20:58:52.094Z,102118.17
2024-02-29T21:01:19.771Z,102114.40
2024-02-29T21:03:49.058Z,102111.64
2024-02-29T21:06:19.133Z,102117.66
2024-02-29T21:08:46.960Z,102118.54
2024-02-29T21:11:15.038Z,102112.84
2024-02-29T21:13:43.792Z,102111.03
2024-02-29T21:16:11.521Z,102110.92
2024-02-29T21:18:39.091Z,102113.46
2024-02-29T21:21:06.691Z,102123.20
2024-02-29T21:23:34.809Z,102121.16
2024-02-29T21:26:03.530Z,102126.45
2024-02-29T21:28:31.177Z,102125.09
2024-02-29T21:30:58.895Z,102124.61
2024-02-29T21:33:26.825Z,102123.98
2024-02-29T21:35:55.960Z,102118.19
2024-02-29T21:38:23.746Z,102114.80
2024-02-29T21:40:51.244Z,102113.65
2024-02-29T21:43:18.750Z,102117.30
2024-02-29T21:45:46.406Z,102117.02
2024-02-29T21:48:14.880Z,102110.97
2024-02-29T21:50:42.570Z,102103.47
2024-02-29T21:53:10.120Z,102100.03
2024-02-29T21:55:37.633Z,102092.59
2024-02-29T21:58:05.145Z,102088.05
2024-02-29T22:00:32.701Z,102091.70
2024-02-29T22:03:00.272Z,102086.58
2024-02-29T22:05:27.776Z,102087.94
2024-02-29T22:07:55.275Z,102087.59
2024-02-29T22:10:22.781Z,102086.59
2024-02-29T22:12:50.281Z,102085.16
2024-02-29T22:15:17.815Z,102078.57
2024-02-29T22:17:45.349Z,102070.23
2024-02-29T22:20:13.013Z,102068.22
2024-02-29T22:22:40.622Z,102068.56
2024-02-29T22:25:08.779Z,102069.98
2024-02-29T22:27:36.270Z,102076.35
2024-02-29T22:30:04.374Z,102081.09
2024-02-29T22:32:31.965Z,102086.83
2024-02-29T22:34:59.566Z,102087.66
2024-02-29T22:37:27.121Z,102095.25
2024-02-29T22:39:54.599Z,102102.17
2024-02-29T22:42:22.143Z,102101.92
2024-02-29T22:44:49.754Z,102094.58
2024-02-29T22:47:17.194Z,102081.17
2024-02-29T22:49:45.391Z,102079.18
2024-02-29T22:52:13.097Z,102071.51
2024-02-29T22:54:40.890Z,102060.27
2024-02-29T22:57:08.316Z,102051.27
2024-02-29T22:59:35.970Z,102064.98
2024-02-29T23:02:05.271Z,102078.44
2024-02-29T23:04:33.783Z,102093.98
2024-02-29T23:07:01.444Z,102098.97
2024-02-29T23:09:28.957Z,102094.86
2024-02-29T23:11:56.449Z,102089.56
2024-02-29T23:14:24.031Z,102087.15
2024-02-29T23:16:51.481Z,102086.21
2024-02-29T23:19:18.995Z,102078.16
2024-02-29T23:21:46.594Z,102073.72
2024-02-29T23:24:14.235Z,102073.04
2024-02-29T23:26:41.799Z,102077.10
2024-02-29T23:29:09.232Z,102075.64
2024-02-29T23:31:36.749Z,102069.73
2024-02-29T23:34:05.084Z,102064.86
2024-02-29T23:36:32.604Z,102062.58
2024-02-29T23:39:00.174Z,102070.40
2024-02-29T23:41:27.665Z,102071.42
2024-02-29T23:43:55.523Z,102067.75
2024-02-29T23:46:23.022Z,102066.43
2024-02-29T23:48:50.625Z,102066.66
2024-02-29T23:51:18.096Z,102065.41
2024-02-29T23:53:45.634Z,102061.08
2024-02-29T23:56:13.074Z,102050.33
2024-02-29T23:58:41.818Z,102049.83
